sensor_id;sensor_type;location;lat;lon;timestamp;temperature;humidity
69162;DHT22;56269;51.738;21.652;2022-11-02T00:01:17;10.12;99.99
69162;DHT22;56269;51.738;21.652;2022-11-02T00:03:45;10.12;99.99
69162;DHT22;56269;51.738;21.652;2022-11-02T00:06:11;10.12;99.99
69162;DHT22;56269;51.738;21.652;2022-11-02T00:08:37;10.17;99.99
69162;DHT22;56269;51.738;21.652;2022-11-02T00:11:03;10.13;99.99
69162;DHT22;56269;51.738;21.652;2022-11-02T00:13:30;10.16;99.99
69162;DHT22;56269;51.738;21.652;2022-11-02T00:16:00;10.16;99.99
69162;DHT22;56269;51.738;21.652;2022-11-02T00:18:27;10.20;99.99
69162;DHT22;56269;51.738;21.652;2022-11-02T00:20:54;10.20;99.99
69162;DHT22;56269;51.738;21.652;2022-11-02T00:23:21;10.23;99.99
69162;DHT22;56269;51.738;21.652;2022-11-02T00:25:48;10.23;99.99
69162;DHT22;56269;51.738;21.652;2022-11-02T00:28:16;10.24;99.99
69162;DHT22;56269;51.738;21.652;2022-11-02T00:30:42;10.24;99.99
69162;DHT22;56269;51.738;21.652;2022-11-02T00:33:09;10.20;99.99
69162;DHT22;56269;51.738;21.652;2022-11-02T00:35:36;10.24;99.99
69162;DHT22;56269;51.738;21.652;2022-11-02T00:38:03;10.26;99.99
69162;DHT22;56269;51.738;21.652;2022-11-02T00:40:29;10.24;99.99
69162;DHT22;56269;51.738;21.652;2022-11-02T00:42:56;10.28;99.99
69162;DHT22;56269;51.738;21.652;2022-11-02T00:45:22;10.26;99.99
69162;DHT22;56269;51.738;21.652;2022-11-02T00:47:49;10.28;99.99
69162;DHT22;56269;51.738;21.652;2022-11-02T00:50:15;10.30;99.99
69162;DHT22;56269;51.738;21.652;2022-11-02T00:52:42;10.29;99.99
69162;DHT22;56269;51.738;21.652;2022-11-02T00:55:09;10.30;99.99
69162;DHT22;56269;51.738;21.652;2022-11-02T00:57:38;10.30;99.99
69162;DHT22;56269;51.738;21.652;2022-11-02T01:00:05;10.29;99.99
69162;DHT22;56269;51.738;21.652;2022-11-02T01:02:33;10.30;99.99
69162;DHT22;56269;51.738;21.652;2022-11-02T01:04:59;10.29;99.99
69162;DHT22;56269;51.738;21.652;2022-11-02T01:07:27;10.33;99.99
69162;DHT22;56269;51.738;21.652;2022-11-02T01:09:53;10.33;99.99
69162;DHT22;56269;51.738;21.652;2022-11-02T01:12:19;10.33;99.99
69162;DHT22;56269;51.738;21.652;2022-11-02T01:14:49;10.33;99.99
69162;DHT22;56269;51.738;21.652;2022-11-02T01:17:16;10.33;99.99
69162;DHT22;56269;51.738;21.652;2022-11-02T01:19:43;10.34;99.99
69162;DHT22;56269;51.738;21.652;2022-11-02T01:22:09;10.34;99.99
69162;DHT22;56269;51.738;21.652;2022-11-02T01:24:35;10.34;99.99
69162;DHT22;56269;51.738;21.652;2022-11-02T01:27:02;10.37;99.99
69162;DHT22;56269;51.738;21.652;2022-11-02T01:29:28;10.37;99.99
69162;DHT22;56269;51.738;21.652;2022-11-02T01:31:54;10.37;99.99
69162;DHT22;56269;51.738;21.652;2022-11-02T01:34:20;10.40;99.99
69162;DHT22;56269;51.738;21.652;2022-11-02T01:36:47;10.40;99.99
69162;DHT22;56269;51.738;21.652;2022-11-02T01:39:13;10.41;99.99
69162;DHT22;56269;51.738;21.652;2022-11-02T01:41:40;10.43;99.99
69162;DHT22;56269;51.738;21.652;2022-11-02T01:47:06;10.41;99.99
69162;DHT22;56269;51.738;21.652;2022-11-02T01:49:37;10.40;99.99
69162;DHT22;56269;51.738;21.652;2022-11-02T01:52:20;10.40;99.99
69162;DHT22;56269;51.738;21.652;2022-11-02T01:55:00;10.39;99.99
69162;DHT22;56269;51.738;21.652;2022-11-02T01:57:28;10.39;99.99
69162;DHT22;56269;51.738;21.652;2022-11-02T02:00:09;10.40;99.99
69162;DHT22;56269;51.738;21.652;2022-11-02T02:02:56;10.37;99.99
69162;DHT22;56269;51.738;21.652;2022-11-02T02:05:25;10.36;99.99
69162;DHT22;56269;51.738;21.652;2022-11-02T02:07:52;10.37;99.99
69162;DHT22;56269;51.738;21.652;2022-11-02T02:10:20;10.34;99.99
69162;DHT22;56269;51.738;21.652;2022-11-02T02:12:47;10.33;99.99
69162;DHT22;56269;51.738;21.652;2022-11-02T02:15:13;10.32;99.99
69162;DHT22;56269;51.738;21.652;2022-11-02T02:18:01;10.29;99.99
69162;DHT22;56269;51.738;21.652;2022-11-02T02:20:41;10.30;99.99
69162;DHT22;56269;51.738;21.652;2022-11-02T02:31:43;10.24;99.99
69162;DHT22;56269;51.738;21.652;2022-11-02T02:34:25;10.24;99.99
69162;DHT22;56269;51.738;21.652;2022-11-02T02:37:34;10.23;99.99
69162;DHT22;56269;51.738;21.652;2022-11-02T02:40:05;10.16;99.99
69162;DHT22;56269;51.738;21.652;2022-11-02T02:42:43;10.16;99.99
69162;DHT22;56269;51.738;21.652;2022-11-02T02:45:18;10.12;99.99
69162;DHT22;56269;51.738;21.652;2022-11-02T02:47:53;10.10;99.99
69162;DHT22;56269;51.738;21.652;2022-11-02T02:50:28;10.08;99.99
69162;DHT22;56269;51.738;21.652;2022-11-02T02:52:57;10.08;99.99
69162;DHT22;56269;51.738;21.652;2022-11-02T02:55:30;10.08;99.99
69162;DHT22;56269;51.738;21.652;2022-11-02T02:58:00;10.09;99.99
69162;DHT22;56269;51.738;21.652;2022-11-02T03:00:27;10.10;99.99
69162;DHT22;56269;51.738;21.652;2022-11-02T03:02:56;10.09;99.99
69162;DHT22;56269;51.738;21.652;2022-11-02T03:05:34;10.10;99.99
69162;DHT22;56269;51.738;21.652;2022-11-02T03:08:11;10.08;99.99
69162;DHT22;56269;51.738;21.652;2022-11-02T03:10:41;10.13;99.99
69162;DHT22;56269;51.738;21.652;2022-11-02T03:13:26;10.10;99.99
69162;DHT22;56269;51.738;21.652;2022-11-02T03:16:02;10.12;99.99
69162;DHT22;56269;51.738;21.652;2022-11-02T03:18:50;10.09;99.99
69162;DHT22;56269;51.738;21.652;2022-11-02T03:21:35;10.08;99.99
69162;DHT22;56269;51.738;21.652;2022-11-02T03:24:08;10.08;99.99
69162;DHT22;56269;51.738;21.652;2022-11-02T03:26:45;10.03;99.99
69162;DHT22;56269;51.738;21.652;2022-11-02T03:29:17;10.06;99.99
69162;DHT22;56269;51.738;21.652;2022-11-02T03:34:19;10.02;99.99
69162;DHT22;56269;51.738;21.652;2022-11-02T03:37:12;10.02;99.99
69162;DHT22;56269;51.738;21.652;2022-11-02T03:40:38;10.02;99.99
69162;DHT22;56269;51.738;21.652;2022-11-02T03:42:39;10.02;99.99
69162;DHT22;56269;51.738;21.652;2022-11-02T03:45:11;10.00;99.99
69162;DHT22;56269;51.738;21.652;2022-11-02T03:47:39;10.02;99.99
69162;DHT22;56269;51.738;21.652;2022-11-02T03:50:08;10.05;99.99
69162;DHT22;56269;51.738;21.652;2022-11-02T03:52:39;10.03;99.99
69162;DHT22;56269;51.738;21.652;2022-11-02T03:55:07;10.03;99.99
69162;DHT22;56269;51.738;21.652;2022-11-02T03:57:44;10.03;99.99
69162;DHT22;56269;51.738;21.652;2022-11-02T04:00:14;10.05;99.99
69162;DHT22;56269;51.738;21.652;2022-11-02T04:02:45;10.06;99.99
69162;DHT22;56269;51.738;21.652;2022-11-02T04:05:11;10.10;99.99
69162;DHT22;56269;51.738;21.652;2022-11-02T04:07:40;10.10;99.99
69162;DHT22;56269;51.738;21.652;2022-11-02T04:10:25;10.08;99.99
69162;DHT22;56269;51.738;21.652;2022-11-02T04:12:52;10.08;99.99
69162;DHT22;56269;51.738;21.652;2022-11-02T04:15:36;10.08;99.99
69162;DHT22;56269;51.738;21.652;2022-11-02T04:18:02;10.09;99.99
69162;DHT22;56269;51.738;21.652;2022-11-02T04:20:50;10.08;99.99
69162;DHT22;56269;51.738;21.652;2022-11-02T04:23:17;10.09;99.99
69162;DHT22;56269;51.738;21.652;2022-11-02T04:26:18;10.10;99.99
69162;DHT22;56269;51.738;21.652;2022-11-02T04:28:44;10.12;99.99
69162;DHT22;56269;51.738;21.652;2022-11-02T04:31:10;10.14;99.99
69162;DHT22;56269;51.738;21.652;2022-11-02T04:33:37;10.17;99.99
69162;DHT22;56269;51.738;21.652;2022-11-02T04:36:06;10.17;99.99
69162;DHT22;56269;51.738;21.652;2022-11-02T04:38:33;10.21;99.99
69162;DHT22;56269;51.738;21.652;2022-11-02T04:41:11;10.20;99.99
69162;DHT22;56269;51.738;21.652;2022-11-02T04:43:56;10.26;99.99
69162;DHT22;56269;51.738;21.652;2022-11-02T04:46:23;10.26;99.99
69162;DHT22;56269;51.738;21.652;2022-11-02T04:48:50;10.28;99.99
69162;DHT22;56269;51.738;21.652;2022-11-02T04:51:17;10.28;99.99
69162;DHT22;56269;51.738;21.652;2022-11-02T04:53:43;10.30;99.99
69162;DHT22;56269;51.738;21.652;2022-11-02T04:56:09;10.30;99.99
69162;DHT22;56269;51.738;21.652;2022-11-02T04:58:36;10.30;99.99
69162;DHT22;56269;51.738;21.652;2022-11-02T05:01:11;10.32;99.99
69162;DHT22;56269;51.738;21.652;2022-11-02T05:03:39;10.30;99.99
69162;DHT22;56269;51.738;21.652;2022-11-02T05:06:05;10.33;99.99
69162;DHT22;56269;51.738;21.652;2022-11-02T05:08:32;10.34;99.99
69162;DHT22;56269;51.738;21.652;2022-11-02T05:10:58;10.34;99.99
69162;DHT22;56269;51.738;21.652;2022-11-02T05:13:25;10.36;99.99
69162;DHT22;56269;51.738;21.652;2022-11-02T05:15:55;10.39;99.99
69162;DHT22;56269;51.738;21.652;2022-11-02T05:18:22;10.39;99.99
69162;DHT22;56269;51.738;21.652;2022-11-02T05:20:50;10.39;99.99
69162;DHT22;56269;51.738;21.652;2022-11-02T05:23:18;10.39;99.99
69162;DHT22;56269;51.738;21.652;2022-11-02T05:25:52;10.39;99.99
69162;DHT22;56269;51.738;21.652;2022-11-02T05:28:19;10.41;99.99
69162;DHT22;56269;51.738;21.652;2022-11-02T05:30:45;10.44;99.99
69162;DHT22;56269;51.738;21.652;2022-11-02T05:33:11;10.44;99.99
69162;DHT22;56269;51.738;21.652;2022-11-02T05:35:37;10.47;99.99
69162;DHT22;56269;51.738;21.652;2022-11-02T05:38:03;10.50;99.99
69162;DHT22;56269;51.738;21.652;2022-11-02T05:40:29;10.54;99.99
69162;DHT22;56269;51.738;21.652;2022-11-02T05:43:02;10.59;99.99
69162;DHT22;56269;51.738;21.652;2022-11-02T05:45:29;10.61;99.99
69162;DHT22;56269;51.738;21.652;2022-11-02T05:47:56;10.67;99.99
69162;DHT22;56269;51.738;21.652;2022-11-02T05:50:24;10.71;99.99
69162;DHT22;56269;51.738;21.652;2022-11-02T05:52:50;10.72;99.99
69162;DHT22;56269;51.738;21.652;2022-11-02T05:55:16;10.75;99.99
69162;DHT22;56269;51.738;21.652;2022-11-02T05:57:42;10.81;99.99
69162;DHT22;56269;51.738;21.652;2022-11-02T06:00:08;10.85;99.99
69162;DHT22;56269;51.738;21.652;2022-11-02T06:02:35;10.85;99.99
69162;DHT22;56269;51.738;21.652;2022-11-02T06:05:01;10.87;99.99
69162;DHT22;56269;51.738;21.652;2022-11-02T06:07:27;10.91;99.99
69162;DHT22;56269;51.738;21.652;2022-11-02T06:09:53;10.94;99.99
69162;DHT22;56269;51.738;21.652;2022-11-02T06:12:19;10.94;99.99
69162;DHT22;56269;51.738;21.652;2022-11-02T06:14:45;10.97;99.99
69162;DHT22;56269;51.738;21.652;2022-11-02T06:17:12;11.00;99.99
69162;DHT22;56269;51.738;21.652;2022-11-02T06:19:38;11.05;99.99
69162;DHT22;56269;51.738;21.652;2022-11-02T06:22:04;11.07;99.99
69162;DHT22;56269;51.738;21.652;2022-11-02T06:24:30;11.04;99.99
69162;DHT22;56269;51.738;21.652;2022-11-02T06:26:56;11.08;99.99
69162;DHT22;56269;51.738;21.652;2022-11-02T06:29:22;11.07;99.99
69162;DHT22;56269;51.738;21.652;2022-11-02T06:31:51;11.08;99.99
69162;DHT22;56269;51.738;21.652;2022-11-02T06:34:17;11.10;99.99
69162;DHT22;56269;51.738;21.652;2022-11-02T06:36:43;11.12;99.99
69162;DHT22;56269;51.738;21.652;2022-11-02T06:39:11;11.14;99.99
69162;DHT22;56269;51.738;21.652;2022-11-02T06:41:40;11.19;99.99
69162;DHT22;56269;51.738;21.652;2022-11-02T06:44:15;11.21;99.99
69162;DHT22;56269;51.738;21.652;2022-11-02T06:46:41;11.19;99.99
69162;DHT22;56269;51.738;21.652;2022-11-02T06:49:07;11.21;99.99
69162;DHT22;56269;51.738;21.652;2022-11-02T06:51:33;11.25;99.99
69162;DHT22;56269;51.738;21.652;2022-11-02T06:53:59;11.29;99.99
69162;DHT22;56269;51.738;21.652;2022-11-02T06:56:25;11.28;99.99
69162;DHT22;56269;51.738;21.652;2022-11-02T06:58:51;11.32;99.99
69162;DHT22;56269;51.738;21.652;2022-11-02T07:01:17;11.33;99.99
69162;DHT22;56269;51.738;21.652;2022-11-02T07:03:44;11.36;99.99
69162;DHT22;56269;51.738;21.652;2022-11-02T07:06:11;11.35;99.99
69162;DHT22;56269;51.738;21.652;2022-11-02T07:08:37;11.39;99.99
69162;DHT22;56269;51.738;21.652;2022-11-02T07:11:03;11.43;99.99
69162;DHT22;56269;51.738;21.652;2022-11-02T07:13:29;11.43;99.99
69162;DHT22;56269;51.738;21.652;2022-11-02T07:15:55;11.43;99.99
69162;DHT22;56269;51.738;21.652;2022-11-02T07:18:22;11.46;99.99
69162;DHT22;56269;51.738;21.652;2022-11-02T07:20:48;11.47;99.99
69162;DHT22;56269;51.738;21.652;2022-11-02T07:23:14;11.49;99.99
69162;DHT22;56269;51.738;21.652;2022-11-02T07:25:40;11.53;99.99
69162;DHT22;56269;51.738;21.652;2022-11-02T07:28:07;11.51;99.99
69162;DHT22;56269;51.738;21.652;2022-11-02T07:30:33;11.52;99.99
69162;DHT22;56269;51.738;21.652;2022-11-02T07:32:59;11.58;99.99
69162;DHT22;56269;51.738;21.652;2022-11-02T07:35:26;11.56;99.99
69162;DHT22;56269;51.738;21.652;2022-11-02T07:37:57;11.58;99.99
69162;DHT22;56269;51.738;21.652;2022-11-02T07:40:24;11.62;99.99
69162;DHT22;56269;51.738;21.652;2022-11-02T07:42:50;11.63;99.99
69162;DHT22;56269;51.738;21.652;2022-11-02T07:45:22;11.66;99.99
69162;DHT22;56269;51.738;21.652;2022-11-02T07:47:49;11.66;99.99
69162;DHT22;56269;51.738;21.652;2022-11-02T07:50:18;11.73;99.99
69162;DHT22;56269;51.738;21.652;2022-11-02T07:52:50;11.72;99.99
69162;DHT22;56269;51.738;21.652;2022-11-02T07:55:23;11.77;99.99
69162;DHT22;56269;51.738;21.652;2022-11-02T08:00:29;11.80;99.99
69162;DHT22;56269;51.738;21.652;2022-11-02T08:02:57;11.83;99.99
69162;DHT22;56269;51.738;21.652;2022-11-02T08:05:24;11.83;99.99
69162;DHT22;56269;51.738;21.652;2022-11-02T08:08:01;11.86;99.99
69162;DHT22;56269;51.738;21.652;2022-11-02T08:10:28;11.83;99.99
69162;DHT22;56269;51.738;21.652;2022-11-02T08:12:56;11.84;99.99
69162;DHT22;56269;51.738;21.652;2022-11-02T08:15:23;11.89;99.99
69162;DHT22;56269;51.738;21.652;2022-11-02T08:18:03;11.94;99.99
69162;DHT22;56269;51.738;21.652;2022-11-02T08:20:31;11.97;99.99
69162;DHT22;56269;51.738;21.652;2022-11-02T08:22:58;11.98;99.99
69162;DHT22;56269;51.738;21.652;2022-11-02T08:25:24;12.04;99.99
69162;DHT22;56269;51.738;21.652;2022-11-02T08:27:51;12.08;99.99
69162;DHT22;56269;51.738;21.652;2022-11-02T08:30:17;12.08;99.99
69162;DHT22;56269;51.738;21.652;2022-11-02T08:32:43;12.17;99.99
69162;DHT22;56269;51.738;21.652;2022-11-02T08:35:09;12.14;99.99
69162;DHT22;56269;51.738;21.652;2022-11-02T08:37:35;12.14;99.99
69162;DHT22;56269;51.738;21.652;2022-11-02T08:40:02;12.18;99.99
69162;DHT22;56269;51.738;21.652;2022-11-02T08:42:28;12.24;99.99
69162;DHT22;56269;51.738;21.652;2022-11-02T08:44:54;12.23;99.99
69162;DHT22;56269;51.738;21.652;2022-11-02T08:47:20;12.30;99.99
69162;DHT22;56269;51.738;21.652;2022-11-02T08:49:46;12.35;99.99
69162;DHT22;56269;51.738;21.652;2022-11-02T08:52:13;12.37;99.99
69162;DHT22;56269;51.738;21.652;2022-11-02T08:54:39;12.34;99.99
69162;DHT22;56269;51.738;21.652;2022-11-02T08:57:06;12.40;99.99
69162;DHT22;56269;51.738;21.652;2022-11-02T08:59:33;12.40;99.99
69162;DHT22;56269;51.738;21.652;2022-11-02T09:02:00;12.40;99.99
69162;DHT22;56269;51.738;21.652;2022-11-02T09:04:26;12.42;99.99
69162;DHT22;56269;51.738;21.652;2022-11-02T09:06:52;12.48;99.99
69162;DHT22;56269;51.738;21.652;2022-11-02T09:09:18;12.49;99.99
69162;DHT22;56269;51.738;21.652;2022-11-02T09:11:44;12.58;99.99
69162;DHT22;56269;51.738;21.652;2022-11-02T09:14:10;12.68;99.99
69162;DHT22;56269;51.738;21.652;2022-11-02T09:16:37;12.69;99.99
69162;DHT22;56269;51.738;21.652;2022-11-02T09:19:03;12.72;99.99
69162;DHT22;56269;51.738;21.652;2022-11-02T09:21:29;12.69;99.99
69162;DHT22;56269;51.738;21.652;2022-11-02T09:23:55;12.92;99.99
69162;DHT22;56269;51.738;21.652;2022-11-02T09:26:21;13.05;99.99
69162;DHT22;56269;51.738;21.652;2022-11-02T09:28:47;13.10;99.99
69162;DHT22;56269;51.738;21.652;2022-11-02T09:31:13;13.17;99.99
69162;DHT22;56269;51.738;21.652;2022-11-02T09:33:39;13.22;99.91
69162;DHT22;56269;51.738;21.652;2022-11-02T09:36:06;13.12;99.34
69162;DHT22;56269;51.738;21.652;2022-11-02T09:38:32;13.32;98.18
69162;DHT22;56269;51.738;21.652;2022-11-02T09:43:59;13.40;99.35
69162;DHT22;56269;51.738;21.652;2022-11-02T09:46:34;13.43;98.65
69162;DHT22;56269;51.738;21.652;2022-11-02T09:49:10;13.37;98.72
69162;DHT22;56269;51.738;21.652;2022-11-02T09:51:57;13.44;99.25
69162;DHT22;56269;51.738;21.652;2022-11-02T09:54:34;13.57;98.41
69162;DHT22;56269;51.738;21.652;2022-11-02T09:57:16;13.79;98.68
69162;DHT22;56269;51.738;21.652;2022-11-02T09:59:45;13.91;97.73
69162;DHT22;56269;51.738;21.652;2022-11-02T10:05:26;13.57;97.55
69162;DHT22;56269;51.738;21.652;2022-11-02T10:08:01;13.36;98.20
69162;DHT22;56269;51.738;21.652;2022-11-02T10:10:46;13.44;99.32
69162;DHT22;56269;51.738;21.652;2022-11-02T10:13:18;13.60;99.47
69162;DHT22;56269;51.738;21.652;2022-11-02T10:15:49;13.61;98.28
69162;DHT22;56269;51.738;21.652;2022-11-02T10:18:23;13.60;98.27
69162;DHT22;56269;51.738;21.652;2022-11-02T10:20:53;13.61;98.50
69162;DHT22;56269;51.738;21.652;2022-11-02T10:23:47;13.48;98.26
69162;DHT22;56269;51.738;21.652;2022-11-02T10:26:18;13.51;97.59
69162;DHT22;56269;51.738;21.652;2022-11-02T10:28:48;13.64;98.33
69162;DHT22;56269;51.738;21.652;2022-11-02T10:31:26;13.66;97.56
69162;DHT22;56269;51.738;21.652;2022-11-02T10:33:53;13.81;98.00
69162;DHT22;56269;51.738;21.652;2022-11-02T10:39:16;14.04;94.93
69162;DHT22;56269;51.738;21.652;2022-11-02T10:41:51;14.17;92.94
69162;DHT22;56269;51.738;21.652;2022-11-02T10:44:31;14.22;93.53
69162;DHT22;56269;51.738;21.652;2022-11-02T10:47:32;14.53;92.75
69162;DHT22;56269;51.738;21.652;2022-11-02T10:52:40;14.48;93.43
69162;DHT22;56269;51.738;21.652;2022-11-02T10:58:03;14.30;92.64
69162;DHT22;56269;51.738;21.652;2022-11-02T11:00:32;13.98;92.37
69162;DHT22;56269;51.738;21.652;2022-11-02T11:05:28;13.71;93.86
69162;DHT22;56269;51.738;21.652;2022-11-02T11:07:55;13.67;95.15
69162;DHT22;56269;51.738;21.652;2022-11-02T11:10:23;13.63;94.97
69162;DHT22;56269;51.738;21.652;2022-11-02T11:12:49;13.61;94.61
69162;DHT22;56269;51.738;21.652;2022-11-02T11:15:23;13.60;95.70
69162;DHT22;56269;51.738;21.652;2022-11-02T11:17:50;13.60;94.74
69162;DHT22;56269;51.738;21.652;2022-11-02T11:20:32;13.70;95.42
69162;DHT22;56269;51.738;21.652;2022-11-02T11:25:39;13.77;94.30
69162;DHT22;56269;51.738;21.652;2022-11-02T11:28:24;13.89;95.39
69162;DHT22;56269;51.738;21.652;2022-11-02T11:31:13;14.05;93.54
69162;DHT22;56269;51.738;21.652;2022-11-02T11:33:52;14.60;93.43
69162;DHT22;56269;51.738;21.652;2022-11-02T11:36:33;14.80;89.94
69162;DHT22;56269;51.738;21.652;2022-11-02T11:39:03;15.12;90.37
69162;DHT22;56269;51.738;21.652;2022-11-02T11:41:32;15.35;88.50
69162;DHT22;56269;51.738;21.652;2022-11-02T11:44:00;15.40;88.63
69162;DHT22;56269;51.738;21.652;2022-11-02T11:46:42;15.37;89.09
69162;DHT22;56269;51.738;21.652;2022-11-02T11:49:25;14.91;88.57
69162;DHT22;56269;51.738;21.652;2022-11-02T11:51:53;15.17;89.70
69162;DHT22;56269;51.738;21.652;2022-11-02T11:54:26;15.34;88.04
69162;DHT22;56269;51.738;21.652;2022-11-02T11:56:58;15.85;86.56
69162;DHT22;56269;51.738;21.652;2022-11-02T11:59:45;15.58;86.69
69162;DHT22;56269;51.738;21.652;2022-11-02T12:02:30;15.91;84.58
69162;DHT22;56269;51.738;21.652;2022-11-02T12:05:17;16.14;83.88
69162;DHT22;56269;51.738;21.652;2022-11-02T12:15:58;15.27;86.69
69162;DHT22;56269;51.738;21.652;2022-11-02T12:27:27;16.22;83.67
69162;DHT22;56269;51.738;21.652;2022-11-02T12:30:02;16.37;83.32
69162;DHT22;56269;51.738;21.652;2022-11-02T12:35:21;16.43;82.47
69162;DHT22;56269;51.738;21.652;2022-11-02T12:40:28;16.59;82.02
69162;DHT22;56269;51.738;21.652;2022-11-02T12:43:28;16.47;83.74
69162;DHT22;56269;51.738;21.652;2022-11-02T12:46:02;16.53;83.67
69162;DHT22;56269;51.738;21.652;2022-11-02T12:51:28;16.56;80.35
69162;DHT22;56269;51.738;21.652;2022-11-02T12:54:10;16.68;81.96
69162;DHT22;56269;51.738;21.652;2022-11-02T12:56:43;16.71;80.63
69162;DHT22;56269;51.738;21.652;2022-11-02T12:59:22;16.81;81.14
69162;DHT22;56269;51.738;21.652;2022-11-02T13:01:53;16.56;80.98
69162;DHT22;56269;51.738;21.652;2022-11-02T13:04:23;16.59;78.99
69162;DHT22;56269;51.738;21.652;2022-11-02T13:06:56;16.61;80.50
69162;DHT22;56269;51.738;21.652;2022-11-02T13:11:59;16.42;79.71
69162;DHT22;56269;51.738;21.652;2022-11-02T13:14:32;16.65;78.24
69162;DHT22;56269;51.738;21.652;2022-11-02T13:17:08;16.85;78.72
69162;DHT22;56269;51.738;21.652;2022-11-02T13:19:40;16.95;76.27
69162;DHT22;56269;51.738;21.652;2022-11-02T13:22:09;16.73;75.84
69162;DHT22;56269;51.738;21.652;2022-11-02T13:24:44;16.65;76.34
69162;DHT22;56269;51.738;21.652;2022-11-02T13:27:34;16.54;77.49
69162;DHT22;56269;51.738;21.652;2022-11-02T13:30:04;16.57;77.76
69162;DHT22;56269;51.738;21.652;2022-11-02T13:32:56;16.47;77.42
69162;DHT22;56269;51.738;21.652;2022-11-02T13:35:27;16.20;78.55
69162;DHT22;56269;51.738;21.652;2022-11-02T13:40:36;15.98;80.60
69162;DHT22;56269;51.738;21.652;2022-11-02T13:43:27;16.10;79.95
69162;DHT22;56269;51.738;21.652;2022-11-02T13:48:52;15.92;81.06
69162;DHT22;56269;51.738;21.652;2022-11-02T13:52:01;15.88;80.32
69162;DHT22;56269;51.738;21.652;2022-11-02T13:54:58;15.71;79.67
69162;DHT22;56269;51.738;21.652;2022-11-02T14:00:01;15.45;80.76
69162;DHT22;56269;51.738;21.652;2022-11-02T14:02:35;15.40;81.02
69162;DHT22;56269;51.738;21.652;2022-11-02T14:05:06;15.32;81.33
69162;DHT22;56269;51.738;21.652;2022-11-02T14:07:38;15.27;81.60
69162;DHT22;56269;51.738;21.652;2022-11-02T14:10:12;15.08;82.13
69162;DHT22;56269;51.738;21.652;2022-11-02T14:12:47;14.93;82.70
69162;DHT22;56269;51.738;21.652;2022-11-02T14:20:32;14.50;83.60
69162;DHT22;56269;51.738;21.652;2022-11-02T14:25:54;14.26;84.75
69162;DHT22;56269;51.738;21.652;2022-11-02T14:33:36;13.87;86.36
69162;DHT22;56269;51.738;21.652;2022-11-02T14:36:31;13.78;86.86
69162;DHT22;56269;51.738;21.652;2022-11-02T14:39:14;13.63;87.23
69162;DHT22;56269;51.738;21.652;2022-11-02T14:42:06;13.47;88.09
69162;DHT22;56269;51.738;21.652;2022-11-02T14:44:46;13.23;88.96
69162;DHT22;56269;51.738;21.652;2022-11-02T14:47:27;13.00;89.84
69162;DHT22;56269;51.738;21.652;2022-11-02T14:52:42;12.64;91.25
69162;DHT22;56269;51.738;21.652;2022-11-02T14:55:22;12.42;92.25
69162;DHT22;56269;51.738;21.652;2022-11-02T15:03:34;11.43;95.14
69162;DHT22;56269;51.738;21.652;2022-11-02T15:09:00;10.88;96.60
69162;DHT22;56269;51.738;21.652;2022-11-02T15:19:38;10.05;99.99
69162;DHT22;56269;51.738;21.652;2022-11-02T15:22:40;9.85;99.99
69162;DHT22;56269;51.738;21.652;2022-11-02T15:27:39;9.62;99.99
69162;DHT22;56269;51.738;21.652;2022-11-02T15:30:15;9.62;99.99
69162;DHT22;56269;51.738;21.652;2022-11-02T15:33:01;9.83;99.99
69162;DHT22;56269;51.738;21.652;2022-11-02T15:35:49;9.93;99.99
69162;DHT22;56269;51.738;21.652;2022-11-02T15:38:16;10.33;99.99
69162;DHT22;56269;51.738;21.652;2022-11-02T15:40:53;10.70;99.99
69162;DHT22;56269;51.738;21.652;2022-11-02T15:52:00;11.33;98.79
69162;DHT22;56269;51.738;21.652;2022-11-02T15:57:57;11.59;98.06
69162;DHT22;56269;51.738;21.652;2022-11-02T16:00:33;11.59;98.03
69162;DHT22;56269;51.738;21.652;2022-11-02T16:03:05;11.56;98.13
69162;DHT22;56269;51.738;21.652;2022-11-02T16:05:34;11.53;98.06
69162;DHT22;56269;51.738;21.652;2022-11-02T16:08:24;11.52;98.12
69162;DHT22;56269;51.738;21.652;2022-11-02T16:11:10;11.66;97.77
69162;DHT22;56269;51.738;21.652;2022-11-02T16:13:38;11.67;97.52
69162;DHT22;56269;51.738;21.652;2022-11-02T16:16:05;11.63;97.61
69162;DHT22;56269;51.738;21.652;2022-11-02T16:18:39;11.66;97.29
69162;DHT22;56269;51.738;21.652;2022-11-02T16:21:08;11.66;97.39
69162;DHT22;56269;51.738;21.652;2022-11-02T16:23:37;11.56;97.43
69162;DHT22;56269;51.738;21.652;2022-11-02T16:26:06;11.47;97.81
69162;DHT22;56269;51.738;21.652;2022-11-02T16:28:38;11.51;97.93
69162;DHT22;56269;51.738;21.652;2022-11-02T16:31:06;11.63;97.79
69162;DHT22;56269;51.738;21.652;2022-11-02T16:33:38;11.70;97.61
69162;DHT22;56269;51.738;21.652;2022-11-02T16:36:06;11.66;97.66
69162;DHT22;56269;51.738;21.652;2022-11-02T16:38:35;11.62;97.77
69162;DHT22;56269;51.738;21.652;2022-11-02T16:41:03;11.59;97.69
69162;DHT22;56269;51.738;21.652;2022-11-02T16:43:32;11.53;97.98
69162;DHT22;56269;51.738;21.652;2022-11-02T16:46:02;11.38;97.85
69162;DHT22;56269;51.738;21.652;2022-11-02T16:48:31;11.26;98.47
69162;DHT22;56269;51.738;21.652;2022-11-02T16:53:42;11.04;99.22
69162;DHT22;56269;51.738;21.652;2022-11-02T16:56:25;10.84;99.37
69162;DHT22;56269;51.738;21.652;2022-11-02T17:01:39;10.49;99.99
69162;DHT22;56269;51.738;21.652;2022-11-02T17:04:17;10.36;99.99
69162;DHT22;56269;51.738;21.652;2022-11-02T17:06:54;10.29;99.99
69162;DHT22;56269;51.738;21.652;2022-11-02T17:09:29;10.17;99.99
69162;DHT22;56269;51.738;21.652;2022-11-02T17:12:05;10.03;99.99
69162;DHT22;56269;51.738;21.652;2022-11-02T17:14:40;9.88;99.99
69162;DHT22;56269;51.738;21.652;2022-11-02T17:20:04;9.61;99.99
69162;DHT22;56269;51.738;21.652;2022-11-02T17:22:58;9.63;99.99
69162;DHT22;56269;51.738;21.652;2022-11-02T17:25:32;9.57;99.99
69162;DHT22;56269;51.738;21.652;2022-11-02T17:30:52;9.52;99.99
69162;DHT22;56269;51.738;21.652;2022-11-02T17:33:25;9.54;99.99
69162;DHT22;56269;51.738;21.652;2022-11-02T17:36:05;9.49;99.99
69162;DHT22;56269;51.738;21.652;2022-11-02T17:38:35;9.68;99.99
69162;DHT22;56269;51.738;21.652;2022-11-02T17:41:03;9.78;99.99
69162;DHT22;56269;51.738;21.652;2022-11-02T17:43:52;9.78;99.99
69162;DHT22;56269;51.738;21.652;2022-11-02T17:46:21;9.77;99.99
69162;DHT22;56269;51.738;21.652;2022-11-02T17:48:49;9.69;99.99
69162;DHT22;56269;51.738;21.652;2022-11-02T17:51:20;9.69;99.99
69162;DHT22;56269;51.738;21.652;2022-11-02T17:53:52;9.62;99.99
69162;DHT22;56269;51.738;21.652;2022-11-02T17:56:20;9.65;99.99